Time;durP1;ratioP1;P1;durP2;ratioP2;P2;SDS_P1;SDS_P2;PMS_P1;PMS_P2;Temp;Humidity;BMP_temperature;BMP_pressure;BME280_temperature;BME280_humidity;BME280_pressure;Samples;Min_cycle;Max_cycle;Signal;HPM_P1;HPM_P2
2022/07/14 00:00:44;;;;;;;1.80;0.97;;;12.80;99.90;;;;;;5091916;28;20220;-66
2022/07/14 00:03:11;;;;;;;0.60;0.60;;;12.90;99.90;;;;;;5092393;28;20548;-66
2022/07/14 00:05:39;;;;;;;2.00;0.70;;;13.00;99.90;;;;;;5100238;27;20186;-65
2022/07/14 00:08:07;;;;;;;1.43;0.57;;;13.10;99.90;;;;;;5102871;28;20193;-65
2022/07/14 00:10:35;;;;;;;2.77;0.60;;;13.20;99.90;;;;;;5092516;28;20659;-66
2022/07/14 00:13:02;;;;;;;1.60;0.67;;;13.60;99.90;;;;;;5092486;28;20243;-66
2022/07/14 00:15:31;;;;;;;2.30;0.93;;;13.70;99.90;;;;;;5091910;28;20181;-65
2022/07/14 00:17:59;;;;;;;0.50;0.50;;;13.60;99.90;;;;;;5092114;28;20190;-65
2022/07/14 00:20:27;;;;;;;2.10;0.80;;;13.50;99.90;;;;;;5073958;28;20214;-65
2022/07/14 00:22:58;;;;;;;1.47;1.23;;;13.50;99.90;;;;;;5092448;28;20177;-65
2022/07/14 00:25:27;;;;;;;3.30;1.00;;;13.50;99.90;;;;;;5092335;28;20269;-65
2022/07/14 00:27:58;;;;;;;4.83;1.13;;;13.50;99.90;;;;;;5092102;28;20179;-66
2022/07/14 00:30:26;;;;;;;2.30;0.60;;;13.50;99.90;;;;;;5092506;28;20535;-65
2022/07/14 00:32:54;;;;;;;5.40;0.80;;;13.50;99.90;;;;;;5092061;28;20185;-65
2022/07/14 00:35:22;;;;;;;3.00;0.80;;;13.60;99.90;;;;;;5091672;28;20263;-65
2022/07/14 00:37:49;;;;;;;0.87;0.70;;;13.70;99.90;;;;;;5091643;28;20191;-65
2022/07/14 00:40:17;;;;;;;3.30;0.67;;;13.70;99.90;;;;;;5091790;28;20255;-64
2022/07/14 00:42:51;;;;;;;3.17;0.80;;;13.90;99.90;;;;;;5091746;28;20651;-65
2022/07/14 00:45:24;;;;;;;1.37;0.80;;;14.00;99.90;;;;;;5092053;28;20184;-65
2022/07/14 00:47:52;;;;;;;2.03;0.77;;;14.40;99.90;;;;;;5092204;28;20202;-65
2022/07/14 00:50:20;;;;;;;2.17;0.50;;;14.70;99.90;;;;;;5072935;28;20656;-64
2022/07/14 00:52:50;;;;;;;2.07;0.70;;;14.70;99.90;;;;;;5091356;28;20167;-66
2022/07/14 00:55:18;;;;;;;1.67;0.70;;;15.00;99.90;;;;;;5092003;28;20180;-65
2022/07/14 00:57:50;;;;;;;1.60;0.73;;;15.30;99.90;;;;;;5091614;28;20270;-67
2022/07/14 01:00:18;;;;;;;1.20;0.60;;;15.40;99.90;;;;;;5091971;28;20288;-65
2022/07/14 01:02:47;;;;;;;1.60;0.70;;;15.60;99.90;;;;;;5091943;28;20167;-64
2022/07/14 01:05:15;;;;;;;2.13;0.50;;;15.80;99.90;;;;;;5091760;28;20701;-64
2022/07/14 01:07:42;;;;;;;1.67;0.73;;;15.90;99.90;;;;;;5073464;28;20641;-64
2022/07/14 01:10:11;;;;;;;1.50;0.93;;;15.60;99.90;;;;;;5091736;28;20187;-66
2022/07/14 01:12:49;;;;;;;3.23;0.90;;;16.10;99.90;;;;;;5091921;28;20167;-65
2022/07/14 01:15:19;;;;;;;3.70;0.97;;;16.00;99.90;;;;;;5091724;28;20331;-66
2022/07/14 01:17:48;;;;;;;5.67;0.90;;;15.80;99.90;;;;;;5091582;28;20220;-65
2022/07/14 01:20:17;;;;;;;2.90;0.93;;;15.90;99.90;;;;;;5091057;28;20783;-63
2022/07/14 01:22:48;;;;;;;2.57;0.87;;;16.10;99.90;;;;;;5091700;28;20214;-63
2022/07/14 01:25:18;;;;;;;2.03;0.77;;;15.70;99.90;;;;;;5091638;28;20522;-65
2022/07/14 01:27:46;;;;;;;2.17;0.90;;;16.20;99.90;;;;;;5091653;28;20179;-65
2022/07/14 01:30:14;;;;;;;3.10;0.97;;;16.80;99.90;;;;;;5091731;28;20538;-66
2022/07/14 01:32:42;;;;;;;3.50;1.00;;;17.20;99.90;;;;;;5091596;28;20168;-66
2022/07/14 01:35:11;;;;;;;3.23;0.90;;;16.90;99.90;;;;;;5091591;28;20285;-66
2022/07/14 01:37:39;;;;;;;3.73;1.07;;;16.70;99.90;;;;;;5091520;28;20220;-66
2022/07/14 01:40:07;;;;;;;2.63;0.60;;;16.90;99.90;;;;;;5091094;28;20613;-66
2022/07/14 01:42:35;;;;;;;2.87;0.87;;;16.40;99.90;;;;;;5091420;28;20183;-66
2022/07/14 01:45:04;;;;;;;2.30;0.80;;;16.50;99.90;;;;;;5091417;28;20199;-65
2022/07/14 01:47:31;;;;;;;2.97;0.70;;;16.40;99.90;;;;;;5074736;28;20193;-65
2022/07/14 01:49:59;;;;;;;2.97;0.90;;;16.30;99.90;;;;;;5095049;28;20243;-65
2022/07/14 01:52:27;;;;;;;6.03;1.03;;;16.30;99.90;;;;;;5094957;28;20179;-65
2022/07/14 01:54:55;;;;;;;6.70;0.67;;;16.60;99.90;;;;;;5094788;28;20167;-65
2022/07/14 01:57:22;;;;;;;2.23;1.03;;;16.30;99.90;;;;;;5094910;28;20187;-65
2022/07/14 01:59:50;;;;;;;3.97;1.10;;;15.90;99.90;;;;;;5094598;28;20207;-64
2022/07/14 02:02:18;;;;;;;2.50;1.13;;;15.90;99.90;;;;;;5094599;28;20214;-65
2022/07/14 02:04:45;;;;;;;5.47;1.07;;;15.80;99.90;;;;;;5094999;28;20186;-65
2022/07/14 02:07:13;;;;;;;1.93;0.80;;;15.70;99.90;;;;;;5094626;28;20191;-65
2022/07/14 02:12:27;;;;;;;3.07;0.93;;;15.20;99.90;;;;;;5094843;28;20198;-65
2022/07/14 02:14:54;;;;;;;3.00;0.80;;;15.10;99.90;;;;;;5094714;28;20187;-65
2022/07/14 02:17:22;;;;;;;5.27;0.80;;;15.40;99.90;;;;;;5094525;28;20171;-65
2022/07/14 02:19:50;;;;;;;4.53;1.10;;;15.60;99.90;;;;;;5094570;28;20210;-65
2022/07/14 02:22:17;;;;;;;5.13;1.17;;;15.60;99.90;;;;;;5094506;28;20183;-65
2022/07/14 02:24:45;;;;;;;8.37;1.17;;;15.60;99.90;;;;;;5094383;28;20187;-65
2022/07/14 02:27:13;;;;;;;3.70;1.10;;;15.80;99.90;;;;;;5094097;28;20792;-65
2022/07/14 02:29:41;;;;;;;4.50;1.10;;;15.90;99.90;;;;;;5076262;28;20196;-65
2022/07/14 02:32:08;;;;;;;4.70;1.17;;;15.50;99.90;;;;;;5094107;28;20676;-65
2022/07/14 02:34:36;;;;;;;5.27;1.03;;;15.70;99.90;;;;;;5094403;28;20633;-66
2022/07/14 02:37:04;;;;;;;3.10;1.10;;;15.80;99.90;;;;;;5093735;28;20183;-65
2022/07/14 02:39:31;;;;;;;3.50;1.00;;;15.60;99.90;;;;;;5094101;28;20231;-65
2022/07/14 02:41:59;;;;;;;4.23;1.00;;;15.70;99.90;;;;;;5094052;28;20189;-64
2022/07/14 02:44:27;;;;;;;1.93;0.90;;;15.60;99.90;;;;;;5094183;28;20179;-64
2022/07/14 02:46:54;;;;;;;2.27;1.00;;;16.40;99.90;;;;;;5094078;28;20186;-66
2022/07/14 02:49:22;;;;;;;4.07;1.40;;;16.80;99.90;;;;;;5094043;28;20671;-67
2022/07/14 02:51:50;;;;;;;6.07;0.97;;;16.70;99.90;;;;;;5075582;28;20679;-67
2022/07/14 02:54:17;;;;;;;5.97;0.93;;;17.00;99.90;;;;;;5093937;28;20264;-66
2022/07/14 02:56:45;;;;;;;5.50;1.60;;;17.40;99.90;;;;;;5093668;28;20222;-67
2022/07/14 02:59:13;;;;;;;2.40;0.63;;;17.50;99.90;;;;;;5093795;28;20168;-68
2022/07/14 03:01:41;;;;;;;2.03;0.87;;;16.70;99.90;;;;;;5093611;28;20556;-66
2022/07/14 03:04:09;;;;;;;3.03;0.70;;;16.50;99.90;;;;;;5093600;28;20183;-66
2022/07/14 03:06:37;;;;;;;4.37;0.80;;;16.60;99.90;;;;;;5093764;28;20171;-68
2022/07/14 03:09:05;;;;;;;1.67;0.70;;;16.60;99.90;;;;;;5093580;28;20262;-65
2022/07/14 03:11:33;;;;;;;6.93;0.90;;;16.10;99.90;;;;;;5093149;28;20202;-66
2022/07/14 03:14:00;;;;;;;4.37;1.00;;;15.80;99.90;;;;;;5093565;28;20229;-65
2022/07/14 03:16:28;;;;;;;6.37;1.03;;;15.80;99.90;;;;;;5094369;28;20185;-66
2022/07/14 03:18:56;;;;;;;2.27;1.00;;;15.70;99.90;;;;;;5092835;28;20187;-67
2022/07/14 03:21:23;;;;;;;2.30;0.80;;;15.50;99.90;;;;;;5094263;28;20232;-67
2022/07/14 03:23:51;;;;;;;2.83;0.80;;;15.60;99.90;;;;;;5094497;28;20647;-66
2022/07/14 03:26:19;;;;;;;2.80;0.80;;;15.50;99.90;;;;;;5076167;28;20187;-66
2022/07/14 03:28:47;;;;;;;2.90;0.80;;;15.40;99.90;;;;;;5094330;28;20176;-66
2022/07/14 03:31:14;;;;;;;2.13;0.80;;;15.20;99.90;;;;;;5094374;28;20242;-66
2022/07/14 03:33:42;;;;;;;4.70;0.90;;;15.20;99.90;;;;;;5094364;28;20175;-67
2022/07/14 03:36:10;;;;;;;4.13;0.90;;;15.20;99.90;;;;;;5094026;28;20304;-66
2022/07/14 03:38:38;;;;;;;1.50;0.67;;;15.20;99.90;;;;;;5094082;28;20203;-67
2022/07/14 03:41:07;;;;;;;2.30;0.77;;;15.20;99.90;;;;;;5094244;28;20236;-67
2022/07/14 03:43:35;;;;;;;3.13;1.17;;;15.20;99.90;;;;;;5094353;28;20628;-67
2022/07/14 03:46:03;;;;;;;3.13;1.20;;;15.10;99.90;;;;;;5094162;28;20182;-67
2022/07/14 03:48:32;;;;;;;5.80;1.60;;;15.00;99.90;;;;;;5094072;28;20625;-67
2022/07/14 03:51:00;;;;;;;5.50;1.10;;;15.00;99.90;;;;;;5094018;28;20178;-67
2022/07/14 03:53:30;;;;;;;2.97;0.90;;;14.90;99.90;;;;;;5094217;28;20184;-66
2022/07/14 03:55:59;;;;;;;6.17;1.10;;;14.80;99.90;;;;;;5093939;28;20178;-66
2022/07/14 03:58:27;;;;;;;3.40;0.90;;;14.70;99.90;;;;;;5093968;28;20198;-66
2022/07/14 04:00:55;;;;;;;3.27;0.97;;;15.20;99.90;;;;;;5075535;28;20269;-66
2022/07/14 04:03:23;;;;;;;5.47;0.97;;;16.00;99.90;;;;;;5093708;28;20184;-66
2022/07/14 04:05:50;;;;;;;2.27;0.67;;;16.70;99.90;;;;;;5093602;28;20690;-65
2022/07/14 04:08:18;;;;;;;2.00;0.80;;;16.70;99.90;;;;;;5093685;28;20175;-67
2022/07/14 04:10:46;;;;;;;4.23;0.87;;;16.20;99.90;;;;;;5093376;28;20186;-66
2022/07/14 04:13:14;;;;;;;3.47;1.10;;;15.90;99.90;;;;;;5093492;28;20240;-67
2022/07/14 04:15:42;;;;;;;4.13;1.20;;;15.90;99.90;;;;;;5093312;28;20221;-67
2022/07/14 04:18:09;;;;;;;3.50;0.93;;;15.60;99.90;;;;;;5093654;28;20254;-67
2022/07/14 04:20:37;;;;;;;1.83;0.80;;;16.00;99.90;;;;;;5093531;28;20219;-66
2022/07/14 04:23:05;;;;;;;4.17;0.80;;;17.00;99.90;;;;;;5094008;28;20171;-66
2022/07/14 04:25:33;;;;;;;3.50;0.80;;;16.60;99.90;;;;;;5092366;28;20183;-65
2022/07/14 04:28:00;;;;;;;1.43;1.10;;;16.30;99.90;;;;;;5092359;28;20184;-64
2022/07/14 04:30:28;;;;;;;3.83;1.13;;;16.60;99.90;;;;;;5092055;28;20611;-67
2022/07/14 04:32:56;;;;;;;3.03;0.80;;;16.60;99.90;;;;;;5092895;28;20180;-66
2022/07/14 04:35:23;;;;;;;3.87;0.87;;;17.00;99.90;;;;;;5090509;28;20270;-66
2022/07/14 04:37:51;;;;;;;4.20;0.90;;;17.20;99.90;;;;;;5092996;28;20213;-66
2022/07/14 04:40:19;;;;;;;4.07;1.00;;;17.70;99.90;;;;;;5092978;28;20237;-67
2022/07/14 04:42:47;;;;;;;3.07;0.90;;;18.00;99.90;;;;;;5093117;28;20186;-66
2022/07/14 04:45:14;;;;;;;4.80;1.40;;;17.30;99.90;;;;;;5092862;28;20319;-66
2022/07/14 04:47:42;;;;;;;6.43;1.00;;;16.60;99.90;;;;;;5093034;28;20175;-67
2022/07/14 04:52:55;;;;;;;2.30;0.80;;;16.80;99.90;;;;;;5093078;28;20189;-66
2022/07/14 04:55:23;;;;;;;7.37;1.03;;;17.20;99.90;;;;;;5092549;28;20191;-65
2022/07/14 04:57:51;;;;;;;5.50;0.73;;;16.60;99.90;;;;;;5092892;28;20541;-66
2022/07/14 05:00:19;;;;;;;1.33;0.60;;;16.10;99.90;;;;;;5092452;28;20560;-65
2022/07/14 05:02:46;;;;;;;5.17;1.00;;;15.90;99.90;;;;;;5092777;28;20188;-65
2022/07/14 05:05:14;;;;;;;3.40;1.53;;;16.20;99.90;;;;;;5092987;28;20171;-66
2022/07/14 05:07:42;;;;;;;4.27;1.00;;;16.90;99.90;;;;;;5092153;28;20730;-65
2022/07/14 05:10:10;;;;;;;4.00;1.00;;;17.30;99.90;;;;;;5092628;28;20191;-66
2022/07/14 05:12:37;;;;;;;2.93;0.90;;;16.70;99.90;;;;;;5092577;28;20559;-66
2022/07/14 05:15:06;;;;;;;3.67;0.90;;;16.20;99.90;;;;;;5092687;28;20181;-66
2022/07/14 05:17:34;;;;;;;4.63;0.90;;;15.60;99.90;;;;;;5082668;28;20695;-66
2022/07/14 05:20:05;;;;;;;3.97;1.10;;;15.50;99.90;;;;;;5099867;28;20315;-65
2022/07/14 05:22:40;;;;;;;3.73;0.80;;;15.50;99.90;;;;;;5100510;28;20186;-66
2022/07/14 05:25:10;;;;;;;0.93;0.73;;;15.50;99.90;;;;;;5108558;28;20186;-68
2022/07/14 05:27:39;;;;;;;2.10;1.00;;;15.90;99.90;;;;;;5099258;28;20645;-64
2022/07/14 05:30:09;;;;;;;4.53;0.77;;;15.90;99.90;;;;;;5107593;28;20193;-64
2022/07/14 05:32:39;;;;;;;5.37;1.07;;;16.30;99.90;;;;;;5101814;28;20668;-64
2022/07/14 05:35:07;;;;;;;2.30;0.80;;;16.10;99.90;;;;;;5076585;28;20183;-63
2022/07/14 05:37:35;;;;;;;4.30;0.80;;;15.70;99.90;;;;;;5095397;28;20183;-64
2022/07/14 05:40:02;;;;;;;2.30;0.70;;;15.60;99.90;;;;;;5094071;28;20231;-63
2022/07/14 05:42:30;;;;;;;1.47;0.80;;;15.60;99.90;;;;;;5095183;28;20661;-64
2022/07/14 05:44:58;;;;;;;3.27;1.07;;;15.50;99.90;;;;;;5095020;28;20645;-64
2022/07/14 05:50:29;;;;;;;2.77;0.90;;;15.20;99.90;;;;;;5073108;28;20227;-68
2022/07/14 05:52:56;;;;;;;4.30;0.90;;;15.10;99.90;;;;;;5074791;28;20183;-69
2022/07/14 05:55:24;;;;;;;3.97;0.90;;;15.00;99.90;;;;;;5069171;28;20202;-68
2022/07/14 05:57:53;;;;;;;2.03;0.60;;;14.90;99.90;;;;;;5068712;28;20642;-68
2022/07/14 06:00:21;;;;;;;1.37;0.67;;;14.80;99.90;;;;;;5074247;28;20222;-69
2022/07/14 06:02:49;;;;;;;3.10;1.10;;;14.70;99.90;;;;;;5068958;28;20208;-69
2022/07/14 06:05:17;;;;;;;1.30;0.80;;;14.70;99.90;;;;;;5067146;28;20670;-68
2022/07/14 06:07:44;;;;;;;6.50;0.90;;;14.60;99.90;;;;;;5074365;28;20727;-68
2022/07/14 06:10:13;;;;;;;0.90;0.50;;;14.60;99.90;;;;;;5056382;28;20182;-68
2022/07/14 06:12:41;;;;;;;1.57;0.70;;;14.50;99.90;;;;;;5073855;28;20256;-70
2022/07/14 06:15:09;;;;;;;2.97;0.80;;;14.50;99.90;;;;;;5073604;28;20675;-68
2022/07/14 06:17:37;;;;;;;2.90;0.70;;;14.40;99.90;;;;;;5072585;28;20176;-67
2022/07/14 06:20:08;;;;;;;3.57;1.20;;;14.30;99.90;;;;;;5071979;28;20239;-68
2022/07/14 06:22:37;;;;;;;3.57;1.57;;;14.20;99.90;;;;;;5071264;28;20183;-68
2022/07/14 06:25:05;;;;;;;4.87;0.97;;;14.10;99.90;;;;;;5054263;28;20630;-67
2022/07/14 06:27:33;;;;;;;2.50;0.90;;;14.20;99.90;;;;;;5073754;28;20178;-67
2022/07/14 06:30:05;;;;;;;2.00;0.87;;;14.00;99.90;;;;;;5072204;28;20180;-68
2022/07/14 06:32:33;;;;;;;1.40;0.80;;;14.00;99.90;;;;;;5072858;28;20180;-69
2022/07/14 06:35:00;;;;;;;2.90;1.10;;;13.90;99.90;;;;;;5074042;28;20670;-71
2022/07/14 06:37:28;;;;;;;3.27;0.90;;;14.00;99.90;;;;;;5073898;28;20594;-69
2022/07/14 06:39:56;;;;;;;2.03;0.90;;;13.90;99.90;;;;;;5073917;28;20212;-70
2022/07/14 06:42:23;;;;;;;2.80;0.97;;;13.90;99.90;;;;;;5070991;28;20175;-68
2022/07/14 06:44:51;;;;;;;2.50;0.77;;;13.80;99.90;;;;;;5074025;28;20178;-69
2022/07/14 06:47:19;;;;;;;5.00;1.17;;;13.70;99.90;;;;;;5073723;28;20551;-68
2022/07/14 06:49:47;;;;;;;1.20;0.73;;;13.60;99.90;;;;;;5074219;28;20239;-69
2022/07/14 06:52:15;;;;;;;3.10;0.90;;;13.60;99.90;;;;;;5055995;28;20244;-69
2022/07/14 06:54:43;;;;;;;2.20;1.20;;;13.50;99.90;;;;;;5073885;28;20669;-70
2022/07/14 06:57:10;;;;;;;3.40;1.20;;;13.30;99.90;;;;;;5073799;28;20189;-71
2022/07/14 06:59:38;;;;;;;1.57;1.10;;;13.30;99.90;;;;;;5073532;28;20213;-69
2022/07/14 07:02:05;;;;;;;2.57;1.30;;;13.30;99.90;;;;;;5073590;28;20177;-68
2022/07/14 07:04:33;;;;;;;1.67;1.27;;;13.30;99.90;;;;;;5063807;28;20197;-68
2022/07/14 07:07:01;;;;;;;2.03;1.03;;;13.20;99.90;;;;;;5073212;28;20218;-70
2022/07/14 07:09:29;;;;;;;1.80;1.37;;;13.00;99.90;;;;;;5073014;28;20651;-69
2022/07/14 07:11:56;;;;;;;2.87;1.10;;;12.90;99.90;;;;;;5073373;28;20675;-69
2022/07/14 07:14:24;;;;;;;4.20;1.40;;;12.90;99.90;;;;;;5071102;28;20556;-68
2022/07/14 07:16:52;;;;;;;2.20;1.30;;;12.80;99.90;;;;;;5070034;28;20189;-68
2022/07/14 07:19:20;;;;;;;6.37;1.77;;;12.70;99.90;;;;;;5072806;28;20180;-65
2022/07/14 07:21:48;;;;;;;4.60;1.27;;;12.60;99.90;;;;;;5073065;28;20188;-66
2022/07/14 07:24:16;;;;;;;4.53;1.20;;;12.50;99.90;;;;;;5072901;28;20725;-66
2022/07/14 07:26:44;;;;;;;5.20;1.30;;;12.50;99.90;;;;;;5072925;28;20415;-66
2022/07/14 07:29:11;;;;;;;5.67;1.50;;;12.60;99.90;;;;;;5073060;28;20175;-66
2022/07/14 07:31:39;;;;;;;4.27;1.90;;;12.50;99.90;;;;;;5073102;28;20223;-66
2022/07/14 07:34:07;;;;;;;4.40;2.27;;;12.40;99.90;;;;;;5073009;28;20178;-66
2022/07/14 07:36:35;;;;;;;6.90;2.27;;;12.40;99.90;;;;;;5055264;28;20198;-65
2022/07/14 07:39:03;;;;;;;3.73;1.97;;;12.40;99.90;;;;;;5054843;28;20178;-65
2022/07/14 07:41:31;;;;;;;2.40;1.63;;;12.30;99.90;;;;;;5072866;28;20209;-66
2022/07/14 07:43:59;;;;;;;4.10;1.40;;;12.20;99.90;;;;;;5072408;28;20299;-66
2022/07/14 07:46:27;;;;;;;2.73;1.30;;;12.10;99.90;;;;;;5072214;28;20181;-65
2022/07/14 07:48:54;;;;;;;6.40;1.83;;;12.10;99.90;;;;;;5072858;28;20257;-65
2022/07/14 07:51:22;;;;;;;2.40;1.60;;;11.90;99.90;;;;;;5072391;28;20216;-65
2022/07/14 07:53:50;;;;;;;11.17;2.17;;;11.90;99.90;;;;;;5072606;28;20176;-65
2022/07/14 07:56:17;;;;;;;5.07;1.70;;;11.90;99.90;;;;;;5072545;28;20181;-65
2022/07/14 07:58:45;;;;;;;4.57;2.13;;;11.90;99.90;;;;;;5072488;28;20204;-65
2022/07/14 08:01:13;;;;;;;4.97;2.07;;;11.90;99.90;;;;;;5072542;28;20235;-65
2022/07/14 08:03:41;;;;;;;4.97;2.27;;;12.00;99.90;;;;;;5072487;28;20201;-65
2022/07/14 08:06:11;;;;;;;2.77;1.50;;;11.90;99.90;;;;;;5072254;28;20311;-65
2022/07/14 08:08:39;;;;;;;2.80;1.80;;;11.90;99.90;;;;;;5072322;28;20178;-66
2022/07/14 08:11:07;;;;;;;6.87;2.33;;;11.80;99.90;;;;;;5072345;28;20264;-66
2022/07/14 08:13:34;;;;;;;3.90;1.40;;;11.70;99.90;;;;;;5072342;28;20723;-66
2022/07/14 08:16:02;;;;;;;5.17;1.97;;;11.50;99.90;;;;;;5072400;28;20175;-66
2022/07/14 08:18:30;;;;;;;3.20;1.43;;;11.50;99.90;;;;;;5072225;28;20167;-65
2022/07/14 08:20:58;;;;;;;5.27;2.40;;;11.60;99.90;;;;;;5072102;28;20307;-66
2022/07/14 08:23:27;;;;;;;4.33;1.77;;;11.60;99.90;;;;;;5054377;28;20203;-67
2022/07/14 08:25:55;;;;;;;5.60;2.10;;;11.60;99.90;;;;;;5072163;28;20230;-67
2022/07/14 08:28:22;;;;;;;3.37;1.80;;;11.60;99.90;;;;;;5071346;28;20189;-70
2022/07/14 08:30:50;;;;;;;3.83;1.60;;;11.60;99.90;;;;;;5071027;28;20184;-69
2022/07/14 08:33:18;;;;;;;3.13;1.47;;;11.70;99.90;;;;;;5071819;28;20226;-68
2022/07/14 08:35:47;;;;;;;2.70;1.43;;;11.70;99.90;;;;;;5070055;28;20189;-68
2022/07/14 08:38:15;;;;;;;4.27;2.07;;;11.70;99.90;;;;;;5072048;28;20261;-68
2022/07/14 08:40:42;;;;;;;4.37;1.67;;;11.70;99.90;;;;;;5069288;28;20307;-68
2022/07/14 08:43:13;;;;;;;6.73;1.90;;;11.60;99.90;;;;;;5071247;28;20185;-68
2022/07/14 08:45:44;;;;;;;4.73;1.30;;;11.50;99.90;;;;;;5069524;28;20215;-68
2022/07/14 08:48:11;;;;;;;5.93;1.70;;;11.30;99.90;;;;;;5067063;28;20680;-68
2022/07/14 08:50:40;;;;;;;3.57;1.80;;;11.20;99.90;;;;;;5071292;28;20223;-68
2022/07/14 08:53:09;;;;;;;4.77;1.50;;;11.00;99.90;;;;;;5071717;28;20196;-68
2022/07/14 08:55:37;;;;;;;7.63;2.93;;;11.00;99.90;;;;;;5072283;28;20168;-67
2022/07/14 08:58:04;;;;;;;4.67;2.43;;;11.00;99.90;;;;;;5075368;28;20201;-68
2022/07/14 09:00:32;;;;;;;4.07;2.23;;;10.80;99.90;;;;;;5075525;28;20218;-69
2022/07/14 09:03:00;;;;;;;4.73;2.70;;;10.70;99.90;;;;;;5075745;28;20180;-68
2022/07/14 09:05:28;;;;;;;6.27;2.93;;;10.60;99.90;;;;;;5075332;28;20188;-67
2022/07/14 09:07:57;;;;;;;15.73;9.93;;;10.40;99.90;;;;;;5075033;28;20183;-67
2022/07/14 09:10:27;;;;;;;17.30;10.93;;;10.20;99.90;;;;;;5075400;28;20190;-67
2022/07/14 09:13:11;;;;;;;9.17;5.60;;;10.10;99.90;;;;;;5075573;28;20173;-68
2022/07/14 09:15:45;;;;;;;6.67;4.53;;;9.80;99.90;;;;;;5075627;28;20203;-68
2022/07/14 09:18:29;;;;;;;7.03;4.50;;;9.70;99.90;;;;;;5057471;28;20191;-68
2022/07/14 09:20:58;;;;;;;8.70;4.67;;;9.50;99.90;;;;;;5075433;28;20232;-67
2022/07/14 09:23:36;;;;;;;7.60;4.67;;;9.30;99.90;;;;;;5075369;28;20211;-67
2022/07/14 09:26:20;;;;;;;7.97;3.60;;;9.20;99.90;;;;;;5075445;28;20198;-67
2022/07/14 09:28:52;;;;;;;5.40;3.27;;;9.10;99.90;;;;;;5055275;28;20691;-68
2022/07/14 09:31:27;;;;;;;8.17;5.27;;;8.90;99.90;;;;;;5047620;28;20187;-68
2022/07/14 09:33:57;;;;;;;9.30;4.30;;;8.80;99.90;;;;;;5075017;28;20642;-67
2022/07/14 09:36:44;;;;;;;8.17;3.83;;;8.70;99.90;;;;;;5074736;28;20183;-67
2022/07/14 09:39:12;;;;;;;7.83;3.90;;;8.60;99.90;;;;;;5075381;28;20724;-67
2022/07/14 09:41:54;;;;;;;8.17;4.33;;;8.60;99.90;;;;;;5075132;28;20652;-68
2022/07/14 09:44:23;;;;;;;10.30;5.17;;;8.50;99.90;;;;;;5074900;28;20225;-68
2022/07/14 09:46:51;;;;;;;16.97;7.60;;;8.40;99.90;;;;;;5074803;28;20191;-67
2022/07/14 09:49:20;;;;;;;11.17;4.70;;;8.30;99.90;;;;;;5074901;28;20223;-68
2022/07/14 09:52:01;;;;;;;13.77;7.73;;;8.20;99.90;;;;;;5074688;28;20245;-67
2022/07/14 09:54:48;;;;;;;16.03;7.40;;;8.20;99.90;;;;;;5074047;28;20184;-67
2022/07/14 09:57:16;;;;;;;9.33;4.97;;;8.10;99.90;;;;;;5074380;28;20201;-68
2022/07/14 09:59:51;;;;;;;8.97;5.50;;;8.10;99.90;;;;;;5074583;28;20242;-67
2022/07/14 10:02:22;;;;;;;9.27;3.73;;;8.00;99.90;;;;;;5074598;28;20541;-69
2022/07/14 10:04:51;;;;;;;9.33;4.40;;;7.90;99.90;;;;;;5075013;28;20240;-68
2022/07/14 10:07:19;;;;;;;7.90;4.00;;;7.80;99.90;;;;;;5073537;28;20199;-67
2022/07/14 10:10:13;;;;;;;9.23;4.07;;;7.80;99.90;;;;;;5074408;28;20186;-68
2022/07/14 10:12:42;;;;;;;7.30;4.37;;;7.70;99.90;;;;;;5064666;28;20735;-68
2022/07/14 10:15:13;;;;;;;9.97;4.57;;;7.70;99.90;;;;;;5074337;28;20651;-68
2022/07/14 10:17:42;;;;;;;12.63;4.90;;;7.70;99.90;;;;;;5074136;28;20183;-67
2022/07/14 10:20:15;;;;;;;8.53;4.43;;;7.70;99.90;;;;;;5074336;28;20304;-67
2022/07/14 10:22:43;;;;;;;18.13;9.60;;;7.60;99.90;;;;;;5074332;28;20186;-68
2022/07/14 10:25:11;;;;;;;23.60;10.83;;;7.50;99.90;;;;;;5074119;28;20190;-68
2022/07/14 10:27:43;;;;;;;11.83;6.40;;;7.50;99.90;;;;;;5074280;28;20190;-68
2022/07/14 10:30:12;;;;;;;19.37;7.87;;;7.40;99.90;;;;;;5074726;28;20176;-68
2022/07/14 10:32:51;;;;;;;10.87;5.80;;;7.40;99.90;;;;;;5056688;28;20599;-68
2022/07/14 10:35:44;;;;;;;7.10;3.87;;;7.40;99.90;;;;;;5074223;28;20175;-68
2022/07/14 10:38:42;;;;;;;7.70;4.10;;;7.30;99.90;;;;;;5054177;28;20175;-68
2022/07/14 10:41:32;;;;;;;12.17;4.97;;;7.30;99.90;;;;;;5054044;28;20225;-67
2022/07/14 10:44:28;;;;;;;23.03;13.97;;;7.20;99.90;;;;;;5054089;28;20682;-67
2022/07/14 10:47:10;;;;;;;15.70;10.70;;;7.20;99.90;;;;;;5064178;28;20252;-67
2022/07/14 10:50:15;;;;;;;19.63;12.93;;;7.10;99.90;;;;;;5073880;28;20273;-67
2022/07/14 10:52:54;;;;;;;12.73;5.33;;;7.10;99.90;;;;;;5073526;28;20234;-67
2022/07/14 10:55:33;;;;;;;5.40;3.40;;;7.10;99.90;;;;;;5073867;28;20549;-67
2022/07/14 10:58:09;;;;;;;5.77;3.10;;;7.10;99.90;;;;;;5073416;28;20176;-67
2022/07/14 11:01:16;;;;;;;7.87;4.07;;;7.10;99.90;;;;;;5073287;28;20275;-68
2022/07/14 11:03:37;;;;;;;5.30;3.70;;;7.10;99.90;;;;;;5069603;28;20215;-67
2022/07/14 11:06:13;;;;;;;7.37;3.60;;;7.10;99.90;;;;;;5073302;28;20191;-67
2022/07/14 11:08:44;;;;;;;4.97;3.27;;;7.10;99.90;;;;;;5073490;28;20266;-67
2022/07/14 11:11:23;;;;;;;7.90;3.60;;;7.00;99.90;;;;;;5073164;28;20191;-68
2022/07/14 11:14:06;;;;;;;14.13;7.57;;;7.00;99.90;;;;;;5073251;28;20167;-68
2022/07/14 11:16:50;;;;;;;11.80;6.67;;;6.90;99.90;;;;;;5072411;28;20240;-68
2022/07/14 11:19:24;;;;;;;13.03;8.67;;;6.90;99.90;;;;;;5071874;28;20195;-68
2022/07/14 11:22:10;;;;;;;11.83;6.27;;;6.90;99.90;;;;;;5055304;28;20230;-68
2022/07/14 11:24:51;;;;;;;5.77;3.80;;;6.90;99.90;;;;;;5073107;28;20273;-68
2022/07/14 11:27:39;;;;;;;7.93;4.13;;;7.10;99.90;;;;;;5071825;28;20198;-67
2022/07/14 11:30:28;;;;;;;5.20;3.37;;;7.00;99.90;;;;;;5073536;28;20183;-67
2022/07/14 11:33:07;;;;;;;7.47;2.90;;;7.00;99.90;;;;;;5074014;28;20193;-67
2022/07/14 11:38:40;;;;;;;6.20;2.57;;;7.30;99.90;;;;;;5073997;28;20262;-67
2022/07/14 11:41:18;;;;;;;7.67;3.07;;;7.50;99.90;;;;;;5073895;28;20676;-67
2022/07/14 11:43:50;;;;;;;5.77;2.37;;;7.80;99.90;;;;;;5073747;28;20205;-67
2022/07/14 11:46:22;;;;;;;5.80;2.50;;;8.20;99.90;;;;;;5073516;28;20233;-68
2022/07/14 11:48:55;;;;;;;4.67;1.87;;;8.60;99.90;;;;;;5074147;28;20639;-67
2022/07/14 11:51:30;;;;;;;5.43;1.90;;;8.70;99.90;;;;;;5056187;28;20305;-67
2022/07/14 11:54:00;;;;;;;5.93;2.50;;;8.70;99.90;;;;;;5073421;28;20186;-68
2022/07/14 11:56:29;;;;;;;3.50;2.03;;;8.80;99.90;;;;;;5073115;28;20194;-68
2022/07/14 11:59:03;;;;;;;3.77;2.47;;;8.80;99.90;;;;;;5073856;28;20171;-68
2022/07/14 12:01:38;;;;;;;4.77;2.53;;;8.80;99.90;;;;;;5073779;28;20302;-67
2022/07/14 12:04:07;;;;;;;3.73;2.93;;;8.90;99.90;;;;;;5073785;28;20174;-68
2022/07/14 12:06:37;;;;;;;3.97;3.13;;;8.80;99.90;;;;;;5073195;28;20198;-68
2022/07/14 12:09:04;;;;;;;7.00;3.33;;;8.80;99.90;;;;;;5073511;28;20183;-68
2022/07/14 12:11:32;;;;;;;9.37;3.30;;;8.90;99.90;;;;;;5073374;28;20259;-68
2022/07/14 12:14:00;;;;;;;5.67;3.03;;;8.80;99.90;;;;;;5073197;28;20193;-68
2022/07/14 12:16:28;;;;;;;4.57;2.80;;;8.90;99.90;;;;;;5072839;28;20182;-68
2022/07/14 12:18:56;;;;;;;8.83;2.97;;;8.90;99.90;;;;;;5073244;28;20562;-68
2022/07/14 12:21:37;;;;;;;5.80;3.60;;;8.80;99.90;;;;;;5073332;28;20256;-67
2022/07/14 12:24:06;;;;;;;7.23;2.90;;;8.80;99.90;;;;;;5073982;28;20181;-68
2022/07/14 12:26:35;;;;;;;4.53;2.60;;;8.80;99.90;;;;;;5072648;28;20187;-67
2022/07/14 12:29:05;;;;;;;3.33;2.73;;;8.80;99.90;;;;;;5073008;28;20194;-67
2022/07/14 12:31:42;;;;;;;3.47;2.10;;;8.70;99.90;;;;;;5072889;28;20170;-67
2022/07/14 12:34:11;;;;;;;5.13;2.50;;;8.70;99.90;;;;;;5073401;28;20174;-67
2022/07/14 12:36:39;;;;;;;3.87;2.10;;;8.70;99.90;;;;;;5073130;28;20233;-67
2022/07/14 12:39:09;;;;;;;6.27;2.40;;;8.70;99.90;;;;;;5072982;28;20199;-67
2022/07/14 12:41:43;;;;;;;2.93;1.70;;;8.70;99.90;;;;;;5073431;28;20593;-67
2022/07/14 12:44:11;;;;;;;8.57;2.30;;;8.90;99.90;;;;;;5073236;28;20179;-67
2022/07/14 12:46:40;;;;;;;4.03;2.27;;;9.00;99.90;;;;;;5072765;28;20191;-67
2022/07/14 12:49:09;;;;;;;4.70;1.97;;;8.90;99.90;;;;;;5072981;28;20175;-66
2022/07/14 12:51:44;;;;;;;3.83;2.20;;;8.90;99.90;;;;;;5072820;28;20313;-67
2022/07/14 12:54:33;;;;;;;5.93;2.00;;;8.80;99.90;;;;;;5073153;28;20216;-67
2022/07/14 12:57:01;;;;;;;4.93;2.13;;;8.80;99.90;;;;;;5072656;28;20183;-67
2022/07/14 12:59:34;;;;;;;3.63;2.10;;;8.80;99.90;;;;;;5073057;28;20640;-67
2022/07/14 13:02:10;;;;;;;3.57;1.60;;;8.80;99.90;;;;;;5073030;28;20233;-68
2022/07/14 13:04:38;;;;;;;3.80;1.67;;;8.80;99.90;;;;;;5072869;28;20518;-67
2022/07/14 13:07:25;;;;;;;3.57;2.00;;;8.80;99.90;;;;;;5072651;28;20184;-67
2022/07/14 13:10:09;;;;;;;2.73;2.10;;;8.70;99.90;;;;;;5072686;28;20540;-67
2022/07/14 13:12:39;;;;;;;2.47;1.77;;;8.60;99.90;;;;;;5072616;28;20197;-67
2022/07/14 13:15:19;;;;;;;4.90;1.80;;;8.60;99.90;;;;;;5072209;28;20658;-67